sensor_id;sensor_type;location;lat;lon;timestamp;P1;durP1;ratioP1;P2;durP2;ratioP2
4132;SDS011;2080;51.038;7.008;2022-12-07T00:01:24;363.33;;;119.23;;
4132;SDS011;2080;51.038;7.008;2022-12-07T00:03:51;367.60;;;98.57;;
4132;SDS011;2080;51.038;7.008;2022-12-07T00:06:16;355.00;;;122.10;;
4132;SDS011;2080;51.038;7.008;2022-12-07T00:08:42;368.30;;;104.87;;
4132;SDS011;2080;51.038;7.008;2022-12-07T00:11:11;368.07;;;109.90;;
4132;SDS011;2080;51.038;7.008;2022-12-07T00:13:36;376.97;;;108.83;;
4132;SDS011;2080;51.038;7.008;2022-12-07T00:16:09;355.20;;;100.30;;
4132;SDS011;2080;51.038;7.008;2022-12-07T00:18:35;356.37;;;91.10;;
4132;SDS011;2080;51.038;7.008;2022-12-07T00:21:01;376.37;;;104.33;;
4132;SDS011;2080;51.038;7.008;2022-12-07T00:23:26;351.43;;;83.50;;
4132;SDS011;2080;51.038;7.008;2022-12-07T00:25:54;380.10;;;107.47;;
4132;SDS011;2080;51.038;7.008;2022-12-07T00:28:19;355.33;;;94.27;;
4132;SDS011;2080;51.038;7.008;2022-12-07T00:30:44;362.17;;;102.30;;
4132;SDS011;2080;51.038;7.008;2022-12-07T00:33:10;354.37;;;93.17;;
4132;SDS011;2080;51.038;7.008;2022-12-07T00:35:35;363.57;;;105.10;;
4132;SDS011;2080;51.038;7.008;2022-12-07T00:38:00;361.23;;;102.23;;
4132;SDS011;2080;51.038;7.008;2022-12-07T00:40:25;353.93;;;101.33;;
4132;SDS011;2080;51.038;7.008;2022-12-07T00:42:50;368.13;;;103.03;;
4132;SDS011;2080;51.038;7.008;2022-12-07T00:45:16;357.80;;;100.80;;
4132;SDS011;2080;51.038;7.008;2022-12-07T00:47:41;356.63;;;92.03;;
4132;SDS011;2080;51.038;7.008;2022-12-07T00:50:06;359.57;;;97.97;;
4132;SDS011;2080;51.038;7.008;2022-12-07T00:52:31;368.03;;;116.50;;
4132;SDS011;2080;51.038;7.008;2022-12-07T00:54:57;376.37;;;106.10;;
4132;SDS011;2080;51.038;7.008;2022-12-07T00:57:24;376.47;;;124.33;;
4132;SDS011;2080;51.038;7.008;2022-12-07T00:59:49;361.37;;;95.77;;
4132;SDS011;2080;51.038;7.008;2022-12-07T01:02:14;360.00;;;106.00;;
4132;SDS011;2080;51.038;7.008;2022-12-07T01:04:42;342.73;;;116.37;;
4132;SDS011;2080;51.038;7.008;2022-12-07T01:07:07;383.47;;;106.53;;
4132;SDS011;2080;51.038;7.008;2022-12-07T01:09:32;357.67;;;105.60;;
4132;SDS011;2080;51.038;7.008;2022-12-07T01:11:58;346.70;;;100.53;;
4132;SDS011;2080;51.038;7.008;2022-12-07T01:14:23;357.03;;;99.00;;
4132;SDS011;2080;51.038;7.008;2022-12-07T01:16:50;347.73;;;101.63;;
4132;SDS011;2080;51.038;7.008;2022-12-07T01:19:18;353.33;;;102.73;;
4132;SDS011;2080;51.038;7.008;2022-12-07T01:21:43;373.33;;;128.77;;
4132;SDS011;2080;51.038;7.008;2022-12-07T01:24:09;358.57;;;101.80;;
4132;SDS011;2080;51.038;7.008;2022-12-07T01:26:34;373.00;;;101.40;;
4132;SDS011;2080;51.038;7.008;2022-12-07T01:28:59;366.03;;;127.97;;
4132;SDS011;2080;51.038;7.008;2022-12-07T01:31:29;346.47;;;112.97;;
4132;SDS011;2080;51.038;7.008;2022-12-07T01:33:56;373.43;;;121.70;;
4132;SDS011;2080;51.038;7.008;2022-12-07T01:36:28;381.20;;;112.83;;
4132;SDS011;2080;51.038;7.008;2022-12-07T01:38:55;363.97;;;100.43;;
4132;SDS011;2080;51.038;7.008;2022-12-07T01:41:21;368.63;;;127.33;;
4132;SDS011;2080;51.038;7.008;2022-12-07T01:46:33;372.73;;;101.60;;
4132;SDS011;2080;51.038;7.008;2022-12-07T01:48:58;369.23;;;104.50;;
4132;SDS011;2080;51.038;7.008;2022-12-07T01:51:24;367.03;;;108.30;;
4132;SDS011;2080;51.038;7.008;2022-12-07T01:53:49;372.13;;;108.63;;
4132;SDS011;2080;51.038;7.008;2022-12-07T01:56:17;412.43;;;116.27;;
4132;SDS011;2080;51.038;7.008;2022-12-07T01:58:43;377.03;;;109.93;;
4132;SDS011;2080;51.038;7.008;2022-12-07T02:01:09;366.30;;;107.63;;
4132;SDS011;2080;51.038;7.008;2022-12-07T02:03:36;359.13;;;133.70;;
4132;SDS011;2080;51.038;7.008;2022-12-07T02:06:03;363.83;;;100.13;;
4132;SDS011;2080;51.038;7.008;2022-12-07T02:08:29;370.17;;;100.60;;
4132;SDS011;2080;51.038;7.008;2022-12-07T02:10:54;373.53;;;110.17;;
4132;SDS011;2080;51.038;7.008;2022-12-07T02:13:21;372.20;;;105.73;;
4132;SDS011;2080;51.038;7.008;2022-12-07T02:18:28;375.53;;;107.13;;
4132;SDS011;2080;51.038;7.008;2022-12-07T02:21:03;359.07;;;97.20;;
4132;SDS011;2080;51.038;7.008;2022-12-07T02:26:12;400.10;;;183.13;;
4132;SDS011;2080;51.038;7.008;2022-12-07T02:29:01;363.73;;;132.50;;
4132;SDS011;2080;51.038;7.008;2022-12-07T02:31:33;387.80;;;112.43;;
4132;SDS011;2080;51.038;7.008;2022-12-07T02:34:11;358.70;;;99.30;;
4132;SDS011;2080;51.038;7.008;2022-12-07T02:36:41;354.67;;;107.93;;
4132;SDS011;2080;51.038;7.008;2022-12-07T02:39:11;354.03;;;126.20;;
4132;SDS011;2080;51.038;7.008;2022-12-07T02:41:43;381.27;;;113.37;;
4132;SDS011;2080;51.038;7.008;2022-12-07T02:44:10;377.53;;;114.07;;
4132;SDS011;2080;51.038;7.008;2022-12-07T02:46:42;357.23;;;123.07;;
4132;SDS011;2080;51.038;7.008;2022-12-07T02:49:07;379.20;;;106.67;;
4132;SDS011;2080;51.038;7.008;2022-12-07T02:51:33;410.97;;;118.07;;
4132;SDS011;2080;51.038;7.008;2022-12-07T02:54:01;366.23;;;128.37;;
4132;SDS011;2080;51.038;7.008;2022-12-07T02:59:17;383.43;;;98.90;;
4132;SDS011;2080;51.038;7.008;2022-12-07T03:06:57;373.63;;;115.17;;
4132;SDS011;2080;51.038;7.008;2022-12-07T03:12:21;387.57;;;127.33;;
4132;SDS011;2080;51.038;7.008;2022-12-07T03:15:01;376.73;;;122.23;;
4132;SDS011;2080;51.038;7.008;2022-12-07T03:17:31;369.60;;;131.03;;
4132;SDS011;2080;51.038;7.008;2022-12-07T03:19:58;378.10;;;125.67;;
4132;SDS011;2080;51.038;7.008;2022-12-07T03:22:25;383.90;;;126.07;;
4132;SDS011;2080;51.038;7.008;2022-12-07T03:24:53;394.03;;;155.03;;
4132;SDS011;2080;51.038;7.008;2022-12-07T03:27:21;394.07;;;151.40;;
4132;SDS011;2080;51.038;7.008;2022-12-07T03:29:49;376.33;;;107.27;;
4132;SDS011;2080;51.038;7.008;2022-12-07T03:32:21;383.90;;;123.93;;
4132;SDS011;2080;51.038;7.008;2022-12-07T03:34:51;363.60;;;107.87;;
4132;SDS011;2080;51.038;7.008;2022-12-07T03:37:20;387.47;;;135.17;;
4132;SDS011;2080;51.038;7.008;2022-12-07T03:39:51;373.30;;;105.70;;
4132;SDS011;2080;51.038;7.008;2022-12-07T03:42:19;380.83;;;128.00;;
4132;SDS011;2080;51.038;7.008;2022-12-07T03:44:45;353.57;;;111.50;;
4132;SDS011;2080;51.038;7.008;2022-12-07T03:47:12;391.13;;;179.93;;
4132;SDS011;2080;51.038;7.008;2022-12-07T03:52:24;403.13;;;180.77;;
4132;SDS011;2080;51.038;7.008;2022-12-07T03:54:56;382.47;;;176.90;;
4132;SDS011;2080;51.038;7.008;2022-12-07T03:57:22;387.47;;;176.70;;
4132;SDS011;2080;51.038;7.008;2022-12-07T03:59:51;398.23;;;196.10;;
4132;SDS011;2080;51.038;7.008;2022-12-07T04:02:18;372.50;;;158.30;;
4132;SDS011;2080;51.038;7.008;2022-12-07T04:04:46;410.83;;;198.67;;
4132;SDS011;2080;51.038;7.008;2022-12-07T04:07:11;396.73;;;167.30;;
4132;SDS011;2080;51.038;7.008;2022-12-07T04:09:37;383.40;;;145.77;;
4132;SDS011;2080;51.038;7.008;2022-12-07T04:12:03;399.23;;;184.73;;
4132;SDS011;2080;51.038;7.008;2022-12-07T04:14:28;384.43;;;186.13;;
4132;SDS011;2080;51.038;7.008;2022-12-07T04:16:56;382.53;;;126.97;;
4132;SDS011;2080;51.038;7.008;2022-12-07T04:19:23;401.60;;;180.30;;
4132;SDS011;2080;51.038;7.008;2022-12-07T04:21:48;384.73;;;136.47;;
4132;SDS011;2080;51.038;7.008;2022-12-07T04:24:14;362.93;;;122.00;;
4132;SDS011;2080;51.038;7.008;2022-12-07T04:26:40;376.47;;;120.53;;
4132;SDS011;2080;51.038;7.008;2022-12-07T04:29:05;392.50;;;161.37;;
4132;SDS011;2080;51.038;7.008;2022-12-07T04:31:31;419.73;;;192.23;;
4132;SDS011;2080;51.038;7.008;2022-12-07T04:33:56;396.53;;;135.80;;
4132;SDS011;2080;51.038;7.008;2022-12-07T04:36:26;402.20;;;158.23;;
4132;SDS011;2080;51.038;7.008;2022-12-07T04:38:54;395.73;;;136.70;;
4132;SDS011;2080;51.038;7.008;2022-12-07T04:41:20;395.73;;;145.40;;
4132;SDS011;2080;51.038;7.008;2022-12-07T04:43:51;389.73;;;149.20;;
4132;SDS011;2080;51.038;7.008;2022-12-07T04:46:17;406.83;;;182.97;;
4132;SDS011;2080;51.038;7.008;2022-12-07T04:48:42;412.20;;;191.20;;
4132;SDS011;2080;51.038;7.008;2022-12-07T04:51:09;371.60;;;129.40;;
4132;SDS011;2080;51.038;7.008;2022-12-07T04:53:34;379.30;;;127.67;;
4132;SDS011;2080;51.038;7.008;2022-12-07T04:55:59;403.67;;;123.43;;
4132;SDS011;2080;51.038;7.008;2022-12-07T04:58:27;384.60;;;126.87;;
4132;SDS011;2080;51.038;7.008;2022-12-07T05:00:55;370.47;;;151.77;;
4132;SDS011;2080;51.038;7.008;2022-12-07T05:03:20;373.87;;;113.00;;
4132;SDS011;2080;51.038;7.008;2022-12-07T05:05:46;356.47;;;115.50;;
4132;SDS011;2080;51.038;7.008;2022-12-07T05:08:11;376.90;;;121.60;;
4132;SDS011;2080;51.038;7.008;2022-12-07T05:10:38;383.00;;;114.40;;
4132;SDS011;2080;51.038;7.008;2022-12-07T05:13:05;382.93;;;127.10;;
4132;SDS011;2080;51.038;7.008;2022-12-07T05:15:33;382.63;;;127.23;;
4132;SDS011;2080;51.038;7.008;2022-12-07T05:17:58;406.33;;;155.47;;
4132;SDS011;2080;51.038;7.008;2022-12-07T05:20:26;374.23;;;126.07;;
4132;SDS011;2080;51.038;7.008;2022-12-07T05:22:53;402.47;;;175.27;;
4132;SDS011;2080;51.038;7.008;2022-12-07T05:25:23;362.73;;;99.70;;
4132;SDS011;2080;51.038;7.008;2022-12-07T05:27:48;352.17;;;107.03;;
4132;SDS011;2080;51.038;7.008;2022-12-07T05:30:13;421.70;;;207.37;;
4132;SDS011;2080;51.038;7.008;2022-12-07T05:32:39;385.50;;;122.03;;
4132;SDS011;2080;51.038;7.008;2022-12-07T05:35:06;402.30;;;126.37;;
4132;SDS011;2080;51.038;7.008;2022-12-07T05:37:32;396.83;;;113.80;;
4132;SDS011;2080;51.038;7.008;2022-12-07T05:39:57;380.43;;;116.80;;
4132;SDS011;2080;51.038;7.008;2022-12-07T05:42:24;382.13;;;128.83;;
4132;SDS011;2080;51.038;7.008;2022-12-07T05:44:49;394.80;;;91.13;;
4132;SDS011;2080;51.038;7.008;2022-12-07T05:47:15;381.10;;;103.23;;
4132;SDS011;2080;51.038;7.008;2022-12-07T05:49:40;358.90;;;98.77;;
4132;SDS011;2080;51.038;7.008;2022-12-07T05:52:05;385.93;;;103.47;;
4132;SDS011;2080;51.038;7.008;2022-12-07T05:54:31;374.17;;;98.33;;
4132;SDS011;2080;51.038;7.008;2022-12-07T05:56:56;360.40;;;107.20;;
4132;SDS011;2080;51.038;7.008;2022-12-07T05:59:21;362.70;;;127.67;;
4132;SDS011;2080;51.038;7.008;2022-12-07T06:02:13;378.90;;;115.70;;
4132;SDS011;2080;51.038;7.008;2022-12-07T06:04:40;388.33;;;110.67;;
4132;SDS011;2080;51.038;7.008;2022-12-07T06:07:06;379.07;;;117.83;;
4132;SDS011;2080;51.038;7.008;2022-12-07T06:09:31;406.73;;;207.80;;
4132;SDS011;2080;51.038;7.008;2022-12-07T06:11:59;350.67;;;98.60;;
4132;SDS011;2080;51.038;7.008;2022-12-07T06:14:43;385.77;;;88.50;;
4132;SDS011;2080;51.038;7.008;2022-12-07T06:17:08;394.70;;;138.17;;
4132;SDS011;2080;51.038;7.008;2022-12-07T06:19:34;372.33;;;112.20;;
4132;SDS011;2080;51.038;7.008;2022-12-07T06:22:01;387.53;;;121.73;;
4132;SDS011;2080;51.038;7.008;2022-12-07T06:24:30;363.70;;;100.43;;
4132;SDS011;2080;51.038;7.008;2022-12-07T06:26:57;365.87;;;113.53;;
4132;SDS011;2080;51.038;7.008;2022-12-07T06:29:23;364.67;;;99.93;;
4132;SDS011;2080;51.038;7.008;2022-12-07T06:31:48;370.87;;;99.93;;
4132;SDS011;2080;51.038;7.008;2022-12-07T06:34:14;369.53;;;102.00;;
4132;SDS011;2080;51.038;7.008;2022-12-07T06:36:39;366.43;;;103.30;;
4132;SDS011;2080;51.038;7.008;2022-12-07T06:39:05;389.00;;;131.43;;
4132;SDS011;2080;51.038;7.008;2022-12-07T06:41:30;376.77;;;112.53;;
4132;SDS011;2080;51.038;7.008;2022-12-07T06:43:55;371.10;;;100.70;;
4132;SDS011;2080;51.038;7.008;2022-12-07T06:46:21;375.20;;;103.50;;
4132;SDS011;2080;51.038;7.008;2022-12-07T06:48:46;360.43;;;96.27;;
4132;SDS011;2080;51.038;7.008;2022-12-07T06:51:11;355.20;;;88.40;;
4132;SDS011;2080;51.038;7.008;2022-12-07T06:53:39;382.07;;;111.73;;
4132;SDS011;2080;51.038;7.008;2022-12-07T06:56:08;369.80;;;105.33;;
4132;SDS011;2080;51.038;7.008;2022-12-07T06:58:34;370.80;;;97.60;;
4132;SDS011;2080;51.038;7.008;2022-12-07T07:00:59;369.77;;;90.70;;
4132;SDS011;2080;51.038;7.008;2022-12-07T07:03:24;374.53;;;105.73;;
4132;SDS011;2080;51.038;7.008;2022-12-07T07:05:49;360.43;;;93.27;;
4132;SDS011;2080;51.038;7.008;2022-12-07T07:08:15;380.17;;;112.90;;
4132;SDS011;2080;51.038;7.008;2022-12-07T07:10:40;369.63;;;110.70;;
4132;SDS011;2080;51.038;7.008;2022-12-07T07:13:05;370.37;;;102.50;;
4132;SDS011;2080;51.038;7.008;2022-12-07T07:15:31;372.23;;;105.63;;
4132;SDS011;2080;51.038;7.008;2022-12-07T07:17:56;381.67;;;110.93;;
4132;SDS011;2080;51.038;7.008;2022-12-07T07:20:21;365.97;;;92.70;;
4132;SDS011;2080;51.038;7.008;2022-12-07T07:22:47;344.40;;;85.03;;
4132;SDS011;2080;51.038;7.008;2022-12-07T07:25:12;369.47;;;105.30;;
4132;SDS011;2080;51.038;7.008;2022-12-07T07:27:37;372.20;;;103.77;;
4132;SDS011;2080;51.038;7.008;2022-12-07T07:30:03;371.43;;;99.10;;
4132;SDS011;2080;51.038;7.008;2022-12-07T07:32:28;364.43;;;90.80;;
4132;SDS011;2080;51.038;7.008;2022-12-07T07:34:53;376.10;;;94.73;;
4132;SDS011;2080;51.038;7.008;2022-12-07T07:37:21;368.87;;;90.70;;
4132;SDS011;2080;51.038;7.008;2022-12-07T07:39:46;355.37;;;87.50;;
4132;SDS011;2080;51.038;7.008;2022-12-07T07:42:12;373.80;;;84.63;;
4132;SDS011;2080;51.038;7.008;2022-12-07T07:44:37;368.17;;;89.07;;
4132;SDS011;2080;51.038;7.008;2022-12-07T07:47:02;363.93;;;90.37;;
4132;SDS011;2080;51.038;7.008;2022-12-07T07:49:30;356.77;;;93.03;;
4132;SDS011;2080;51.038;7.008;2022-12-07T07:51:55;360.13;;;86.53;;
4132;SDS011;2080;51.038;7.008;2022-12-07T07:54:21;374.10;;;91.93;;
4132;SDS011;2080;51.038;7.008;2022-12-07T07:56:46;370.70;;;93.23;;
4132;SDS011;2080;51.038;7.008;2022-12-07T07:59:11;364.30;;;90.37;;
4132;SDS011;2080;51.038;7.008;2022-12-07T08:01:36;357.50;;;94.87;;
4132;SDS011;2080;51.038;7.008;2022-12-07T08:04:01;370.67;;;95.40;;
4132;SDS011;2080;51.038;7.008;2022-12-07T08:06:27;365.77;;;90.20;;
4132;SDS011;2080;51.038;7.008;2022-12-07T08:08:54;377.67;;;114.13;;
4132;SDS011;2080;51.038;7.008;2022-12-07T08:11:19;365.70;;;92.63;;
4132;SDS011;2080;51.038;7.008;2022-12-07T08:13:45;373.40;;;100.17;;
4132;SDS011;2080;51.038;7.008;2022-12-07T08:16:14;370.80;;;97.47;;
4132;SDS011;2080;51.038;7.008;2022-12-07T08:18:40;359.63;;;102.50;;
4132;SDS011;2080;51.038;7.008;2022-12-07T08:21:09;363.10;;;100.23;;
4132;SDS011;2080;51.038;7.008;2022-12-07T08:23:35;360.20;;;88.47;;
4132;SDS011;2080;51.038;7.008;2022-12-07T08:26:01;366.40;;;101.07;;
4132;SDS011;2080;51.038;7.008;2022-12-07T08:28:27;370.80;;;126.70;;
4132;SDS011;2080;51.038;7.008;2022-12-07T08:31:01;358.43;;;92.40;;
4132;SDS011;2080;51.038;7.008;2022-12-07T08:33:27;366.43;;;114.70;;
4132;SDS011;2080;51.038;7.008;2022-12-07T08:35:52;361.07;;;108.90;;
4132;SDS011;2080;51.038;7.008;2022-12-07T08:38:17;366.00;;;107.07;;
4132;SDS011;2080;51.038;7.008;2022-12-07T08:40:45;367.47;;;96.50;;
4132;SDS011;2080;51.038;7.008;2022-12-07T08:43:10;368.50;;;132.53;;
4132;SDS011;2080;51.038;7.008;2022-12-07T08:45:35;347.93;;;116.83;;
4132;SDS011;2080;51.038;7.008;2022-12-07T08:48:06;385.53;;;114.13;;
4132;SDS011;2080;51.038;7.008;2022-12-07T08:50:32;364.60;;;107.63;;
4132;SDS011;2080;51.038;7.008;2022-12-07T08:52:58;365.27;;;126.43;;
4132;SDS011;2080;51.038;7.008;2022-12-07T08:55:23;360.37;;;108.03;;
4132;SDS011;2080;51.038;7.008;2022-12-07T08:57:49;367.43;;;106.80;;
4132;SDS011;2080;51.038;7.008;2022-12-07T09:00:15;388.97;;;119.90;;
4132;SDS011;2080;51.038;7.008;2022-12-07T09:02:43;367.93;;;107.70;;
4132;SDS011;2080;51.038;7.008;2022-12-07T09:05:09;365.40;;;114.10;;
4132;SDS011;2080;51.038;7.008;2022-12-07T09:07:34;363.20;;;110.10;;
4132;SDS011;2080;51.038;7.008;2022-12-07T09:10:03;374.57;;;127.43;;
4132;SDS011;2080;51.038;7.008;2022-12-07T09:12:28;377.43;;;139.63;;
4132;SDS011;2080;51.038;7.008;2022-12-07T09:14:54;382.43;;;154.73;;
4132;SDS011;2080;51.038;7.008;2022-12-07T09:17:19;410.27;;;164.47;;
4132;SDS011;2080;51.038;7.008;2022-12-07T09:19:44;401.07;;;166.43;;
4132;SDS011;2080;51.038;7.008;2022-12-07T09:22:09;394.47;;;159.70;;
4132;SDS011;2080;51.038;7.008;2022-12-07T09:24:35;392.10;;;151.93;;
4132;SDS011;2080;51.038;7.008;2022-12-07T09:27:03;401.90;;;175.20;;
4132;SDS011;2080;51.038;7.008;2022-12-07T09:29:28;402.77;;;201.03;;
4132;SDS011;2080;51.038;7.008;2022-12-07T09:31:53;398.17;;;193.83;;
4132;SDS011;2080;51.038;7.008;2022-12-07T09:34:19;388.77;;;155.83;;
4132;SDS011;2080;51.038;7.008;2022-12-07T09:36:45;401.13;;;202.77;;
4132;SDS011;2080;51.038;7.008;2022-12-07T09:39:13;409.30;;;194.00;;
4132;SDS011;2080;51.038;7.008;2022-12-07T09:41:41;410.13;;;184.07;;
4132;SDS011;2080;51.038;7.008;2022-12-07T09:44:10;398.53;;;245.43;;
4132;SDS011;2080;51.038;7.008;2022-12-07T09:46:37;430.57;;;275.87;;
4132;SDS011;2080;51.038;7.008;2022-12-07T09:49:04;395.80;;;213.07;;
4132;SDS011;2080;51.038;7.008;2022-12-07T09:51:31;422.27;;;251.07;;
4132;SDS011;2080;51.038;7.008;2022-12-07T09:53:57;416.87;;;249.40;;
4132;SDS011;2080;51.038;7.008;2022-12-07T09:56:23;449.13;;;326.97;;
4132;SDS011;2080;51.038;7.008;2022-12-07T09:58:48;439.37;;;301.13;;
4132;SDS011;2080;51.038;7.008;2022-12-07T10:01:18;415.77;;;228.60;;
4132;SDS011;2080;51.038;7.008;2022-12-07T10:03:51;429.87;;;270.23;;
4132;SDS011;2080;51.038;7.008;2022-12-07T10:06:17;415.03;;;232.67;;
4132;SDS011;2080;51.038;7.008;2022-12-07T10:08:42;441.47;;;307.40;;
4132;SDS011;2080;51.038;7.008;2022-12-07T10:11:08;422.33;;;265.07;;
4132;SDS011;2080;51.038;7.008;2022-12-07T10:16:02;412.67;;;236.50;;
4132;SDS011;2080;51.038;7.008;2022-12-07T10:18:35;435.90;;;292.07;;
4132;SDS011;2080;51.038;7.008;2022-12-07T10:23:29;407.40;;;244.70;;
4132;SDS011;2080;51.038;7.008;2022-12-07T10:25:55;428.53;;;274.43;;
4132;SDS011;2080;51.038;7.008;2022-12-07T10:28:20;418.53;;;214.37;;
4132;SDS011;2080;51.038;7.008;2022-12-07T10:31:02;416.07;;;258.60;;
4132;SDS011;2080;51.038;7.008;2022-12-07T10:35:54;396.33;;;212.53;;
4132;SDS011;2080;51.038;7.008;2022-12-07T10:38:19;394.30;;;198.97;;
4132;SDS011;2080;51.038;7.008;2022-12-07T10:40:44;444.90;;;335.63;;
4132;SDS011;2080;51.038;7.008;2022-12-07T10:46:17;420.30;;;250.00;;
4132;SDS011;2080;51.038;7.008;2022-12-07T11:01:52;354.53;;;131.90;;
4132;SDS011;2080;51.038;7.008;2022-12-07T11:09:23;359.63;;;117.87;;
4132;SDS011;2080;51.038;7.008;2022-12-07T11:17:02;370.37;;;124.47;;
4132;SDS011;2080;51.038;7.008;2022-12-07T11:19:39;371.80;;;134.73;;
4132;SDS011;2080;51.038;7.008;2022-12-07T11:22:09;366.80;;;103.20;;
4132;SDS011;2080;51.038;7.008;2022-12-07T11:24:41;360.93;;;114.83;;
4132;SDS011;2080;51.038;7.008;2022-12-07T11:29:49;378.30;;;138.10;;
4132;SDS011;2080;51.038;7.008;2022-12-07T11:32:31;373.03;;;123.60;;
4132;SDS011;2080;51.038;7.008;2022-12-07T11:35:19;350.33;;;105.37;;
4132;SDS011;2080;51.038;7.008;2022-12-07T11:37:47;371.37;;;111.43;;
4132;SDS011;2080;51.038;7.008;2022-12-07T11:40:17;371.30;;;148.70;;
4132;SDS011;2080;51.038;7.008;2022-12-07T11:45:34;371.80;;;112.03;;
4132;SDS011;2080;51.038;7.008;2022-12-07T11:48:03;359.07;;;111.47;;
4132;SDS011;2080;51.038;7.008;2022-12-07T11:53:33;340.57;;;99.77;;
4132;SDS011;2080;51.038;7.008;2022-12-07T12:03:52;440.77;;;291.50;;
4132;SDS011;2080;51.038;7.008;2022-12-07T12:06:18;429.93;;;264.43;;
4132;SDS011;2080;51.038;7.008;2022-12-07T12:11:20;379.27;;;160.73;;
4132;SDS011;2080;51.038;7.008;2022-12-07T12:21:32;419.80;;;253.03;;
4132;SDS011;2080;51.038;7.008;2022-12-07T12:26:29;366.87;;;155.13;;
4132;SDS011;2080;51.038;7.008;2022-12-07T12:29:19;404.20;;;221.50;;
4132;SDS011;2080;51.038;7.008;2022-12-07T12:31:46;401.57;;;189.97;;
4132;SDS011;2080;51.038;7.008;2022-12-07T12:36:56;369.77;;;163.40;;
4132;SDS011;2080;51.038;7.008;2022-12-07T12:39:24;402.60;;;182.70;;
4132;SDS011;2080;51.038;7.008;2022-12-07T12:41:51;400.47;;;224.47;;
4132;SDS011;2080;51.038;7.008;2022-12-07T12:54:20;355.20;;;137.23;;
4132;SDS011;2080;51.038;7.008;2022-12-07T12:56:53;410.53;;;219.67;;
4132;SDS011;2080;51.038;7.008;2022-12-07T13:01:49;425.33;;;257.97;;
4132;SDS011;2080;51.038;7.008;2022-12-07T13:04:18;432.60;;;270.70;;
4132;SDS011;2080;51.038;7.008;2022-12-07T13:06:46;417.43;;;271.00;;
4132;SDS011;2080;51.038;7.008;2022-12-07T13:09:22;415.77;;;212.47;;
4132;SDS011;2080;51.038;7.008;2022-12-07T13:11:48;385.37;;;156.40;;
4132;SDS011;2080;51.038;7.008;2022-12-07T13:16:58;417.63;;;236.90;;
4132;SDS011;2080;51.038;7.008;2022-12-07T13:22:49;425.07;;;262.87;;
4132;SDS011;2080;51.038;7.008;2022-12-07T13:27:46;439.57;;;303.07;;
4132;SDS011;2080;51.038;7.008;2022-12-07T13:30:16;416.10;;;224.70;;
4132;SDS011;2080;51.038;7.008;2022-12-07T13:32:41;416.70;;;232.70;;
4132;SDS011;2080;51.038;7.008;2022-12-07T13:37:54;394.10;;;175.20;;
4132;SDS011;2080;51.038;7.008;2022-12-07T13:40:20;372.30;;;162.20;;
4132;SDS011;2080;51.038;7.008;2022-12-07T13:42:56;391.40;;;181.33;;
4132;SDS011;2080;51.038;7.008;2022-12-07T13:48:11;401.27;;;197.33;;
4132;SDS011;2080;51.038;7.008;2022-12-07T13:50:38;377.50;;;183.70;;
4132;SDS011;2080;51.038;7.008;2022-12-07T13:53:07;368.23;;;119.77;;
4132;SDS011;2080;51.038;7.008;2022-12-07T13:55:36;342.20;;;113.47;;
4132;SDS011;2080;51.038;7.008;2022-12-07T13:58:01;348.70;;;83.60;;
4132;SDS011;2080;51.038;7.008;2022-12-07T14:00:27;345.00;;;123.73;;
4132;SDS011;2080;51.038;7.008;2022-12-07T14:07:57;371.13;;;147.23;;
4132;SDS011;2080;51.038;7.008;2022-12-07T14:10:27;372.20;;;154.10;;
4132;SDS011;2080;51.038;7.008;2022-12-07T14:12:52;364.13;;;130.47;;
4132;SDS011;2080;51.038;7.008;2022-12-07T14:15:19;367.30;;;147.50;;
4132;SDS011;2080;51.038;7.008;2022-12-07T14:17:52;377.73;;;145.87;;
4132;SDS011;2080;51.038;7.008;2022-12-07T14:23:04;389.30;;;188.10;;
4132;SDS011;2080;51.038;7.008;2022-12-07T14:25:45;355.47;;;108.80;;
4132;SDS011;2080;51.038;7.008;2022-12-07T14:28:28;391.17;;;213.97;;
4132;SDS011;2080;51.038;7.008;2022-12-07T14:30:55;371.10;;;123.70;;
4132;SDS011;2080;51.038;7.008;2022-12-07T14:33:20;362.13;;;122.80;;
4132;SDS011;2080;51.038;7.008;2022-12-07T14:35:46;375.57;;;142.10;;
4132;SDS011;2080;51.038;7.008;2022-12-07T14:38:12;359.83;;;124.90;;
4132;SDS011;2080;51.038;7.008;2022-12-07T14:40:40;354.00;;;114.40;;
4132;SDS011;2080;51.038;7.008;2022-12-07T14:43:08;369.87;;;142.07;;
4132;SDS011;2080;51.038;7.008;2022-12-07T14:45:34;378.77;;;139.37;;
4132;SDS011;2080;51.038;7.008;2022-12-07T14:47:59;363.80;;;136.53;;
4132;SDS011;2080;51.038;7.008;2022-12-07T14:50:25;374.03;;;162.73;;
4132;SDS011;2080;51.038;7.008;2022-12-07T14:52:58;370.20;;;152.20;;
4132;SDS011;2080;51.038;7.008;2022-12-07T14:55:26;391.60;;;183.87;;
4132;SDS011;2080;51.038;7.008;2022-12-07T14:57:54;394.80;;;185.30;;
4132;SDS011;2080;51.038;7.008;2022-12-07T15:00:20;386.97;;;168.77;;
4132;SDS011;2080;51.038;7.008;2022-12-07T15:02:46;396.27;;;197.47;;
4132;SDS011;2080;51.038;7.008;2022-12-07T15:05:11;390.70;;;190.20;;
4132;SDS011;2080;51.038;7.008;2022-12-07T15:07:40;419.77;;;238.70;;
4132;SDS011;2080;51.038;7.008;2022-12-07T15:10:08;413.10;;;214.40;;
4132;SDS011;2080;51.038;7.008;2022-12-07T15:12:36;397.90;;;208.17;;
4132;SDS011;2080;51.038;7.008;2022-12-07T15:15:01;412.33;;;235.97;;
4132;SDS011;2080;51.038;7.008;2022-12-07T15:17:27;415.67;;;240.07;;
4132;SDS011;2080;51.038;7.008;2022-12-07T15:19:52;406.53;;;215.70;;
4132;SDS011;2080;51.038;7.008;2022-12-07T15:22:22;402.33;;;175.03;;
4132;SDS011;2080;51.038;7.008;2022-12-07T15:24:47;360.33;;;119.93;;
4132;SDS011;2080;51.038;7.008;2022-12-07T15:27:15;403.40;;;226.37;;
4132;SDS011;2080;51.038;7.008;2022-12-07T15:29:42;405.30;;;227.27;;
4132;SDS011;2080;51.038;7.008;2022-12-07T15:32:10;403.60;;;207.20;;
4132;SDS011;2080;51.038;7.008;2022-12-07T15:34:35;404.30;;;232.90;;
4132;SDS011;2080;51.038;7.008;2022-12-07T15:37:00;409.30;;;234.27;;
4132;SDS011;2080;51.038;7.008;2022-12-07T15:39:26;386.33;;;189.33;;
4132;SDS011;2080;51.038;7.008;2022-12-07T15:41:51;452.27;;;341.17;;
4132;SDS011;2080;51.038;7.008;2022-12-07T15:44:17;378.73;;;174.83;;
4132;SDS011;2080;51.038;7.008;2022-12-07T15:47:01;403.80;;;225.27;;
4132;SDS011;2080;51.038;7.008;2022-12-07T15:49:26;437.53;;;289.27;;
4132;SDS011;2080;51.038;7.008;2022-12-07T15:51:52;389.37;;;189.83;;
4132;SDS011;2080;51.038;7.008;2022-12-07T15:54:19;390.63;;;211.37;;
4132;SDS011;2080;51.038;7.008;2022-12-07T15:56:44;376.10;;;166.77;;
4132;SDS011;2080;51.038;7.008;2022-12-07T15:59:10;404.87;;;219.00;;
4132;SDS011;2080;51.038;7.008;2022-12-07T16:01:37;392.30;;;196.07;;
4132;SDS011;2080;51.038;7.008;2022-12-07T16:04:02;416.73;;;251.50;;
4132;SDS011;2080;51.038;7.008;2022-12-07T16:06:28;380.33;;;150.43;;
4132;SDS011;2080;51.038;7.008;2022-12-07T16:08:55;409.07;;;218.23;;
4132;SDS011;2080;51.038;7.008;2022-12-07T16:11:20;391.13;;;178.20;;
4132;SDS011;2080;51.038;7.008;2022-12-07T16:13:46;370.27;;;151.77;;
4132;SDS011;2080;51.038;7.008;2022-12-07T16:16:12;395.73;;;210.50;;
4132;SDS011;2080;51.038;7.008;2022-12-07T16:18:38;391.50;;;202.53;;
4132;SDS011;2080;51.038;7.008;2022-12-07T16:21:05;379.57;;;165.27;;
4132;SDS011;2080;51.038;7.008;2022-12-07T16:23:31;398.53;;;197.97;;
4132;SDS011;2080;51.038;7.008;2022-12-07T16:28:48;394.03;;;203.87;;